createdAt,value
2017-09-28T00:00:19.479Z,1040.45
2017-09-28T00:01:19.472Z,1040.48
2017-09-28T00:02:19.468Z,1040.46
2017-09-28T00:03:19.462Z,1040.48
2017-09-28T00:04:19.454Z,1040.47
2017-09-28T00:05:19.450Z,1040.43
2017-09-28T00:06:19.443Z,1040.47
2017-09-28T00:07:19.436Z,1040.43
2017-09-28T00:08:19.430Z,1040.45
2017-09-28T00:09:19.425Z,1040.46
2017-09-28T00:10:19.421Z,1040.42
2017-09-28T00:11:19.415Z,1040.43
2017-09-28T00:12:19.409Z,1040.42
2017-09-28T00:13:19.403Z,1040.45
2017-09-28T00:14:19.397Z,1040.46
2017-09-28T00:15:19.389Z,1040.47
2017-09-28T00:16:19.384Z,1040.42
2017-09-28T00:17:19.378Z,1040.51
2017-09-28T00:18:19.372Z,1040.43
2017-09-28T00:19:19.368Z,1040.47
2017-09-28T00:20:19.362Z,1040.38
2017-09-28T00:21:19.357Z,1040.41
2017-09-28T00:22:19.350Z,1040.44
2017-09-28T00:23:19.343Z,1040.41
2017-09-28T00:24:19.337Z,1040.41
2017-09-28T00:25:19.332Z,1040.41
2017-09-28T00:26:19.325Z,1040.36
2017-09-28T00:27:19.321Z,1040.37
2017-09-28T00:28:19.314Z,1040.34
2017-09-28T00:29:19.307Z,1040.39
2017-09-28T00:30:19.302Z,1040.36
2017-09-28T00:31:19.297Z,1040.33
2017-09-28T00:32:19.292Z,1040.34
2017-09-28T00:33:19.285Z,1040.34
2017-09-28T00:34:19.281Z,1040.4
2017-09-28T00:35:19.273Z,1040.37
2017-09-28T00:36:19.267Z,1040.36
2017-09-28T00:37:19.261Z,1040.4
2017-09-28T00:38:19.255Z,1040.4
2017-09-28T00:39:19.250Z,1040.39
2017-09-28T00:40:19.244Z,1040.38
2017-09-28T00:41:19.239Z,1040.39
2017-09-28T00:42:19.236Z,1040.4
2017-09-28T00:43:19.226Z,1040.43
2017-09-28T00:44:19.220Z,1040.42
2017-09-28T00:45:19.215Z,1040.43
2017-09-28T00:46:19.209Z,1040.4
2017-09-28T00:47:19.205Z,1040.42
2017-09-28T00:48:19.198Z,1040.4
2017-09-28T00:49:19.191Z,1040.39
2017-09-28T00:50:19.186Z,1040.38
2017-09-28T00:51:19.178Z,1040.41
2017-09-28T00:52:19.173Z,1040.35
2017-09-28T00:53:19.167Z,1040.37
2017-09-28T00:54:19.163Z,1040.32
2017-09-28T00:55:19.156Z,1040.29
2017-09-28T00:56:19.150Z,1040.32
2017-09-28T00:57:19.144Z,1040.27
2017-09-28T00:58:19.139Z,1040.31
2017-09-28T00:59:19.137Z,1040.28
2017-09-28T01:00:19.127Z,1040.29
2017-09-28T01:01:19.123Z,1040.29
2017-09-28T01:02:19.117Z,1040.3
2017-09-28T01:03:19.108Z,1040.3
2017-09-28T01:04:19.103Z,1040.32
2017-09-28T01:05:19.098Z,1040.3
2017-09-28T01:06:19.092Z,1040.32
2017-09-28T01:07:19.087Z,1040.31
2017-09-28T01:08:19.081Z,1040.34
2017-09-28T01:09:19.076Z,1040.33
2017-09-28T01:10:19.069Z,1040.33
2017-09-28T01:11:19.070Z,1040.33
2017-09-28T01:12:19.057Z,1040.38
2017-09-28T01:13:19.050Z,1040.35
2017-09-28T01:14:19.044Z,1040.34
2017-09-28T01:15:19.040Z,1040.37
2017-09-28T01:16:19.034Z,1040.37
2017-09-28T01:17:19.029Z,1040.35
2017-09-28T01:18:19.022Z,1040.35
2017-09-28T01:19:19.015Z,1040.34
2017-09-28T01:20:19.011Z,1040.3
2017-09-28T01:21:19.004Z,1040.33
2017-09-28T01:22:18.999Z,1040.35
2017-09-28T01:23:18.992Z,1040.33
2017-09-28T01:24:18.986Z,1040.3
2017-09-28T01:25:18.979Z,1040.31
2017-09-28T01:26:18.973Z,1040.3
2017-09-28T01:27:18.969Z,1040.28
2017-09-28T01:28:18.962Z,1040.3
2017-09-28T01:29:18.957Z,1040.3
2017-09-28T01:30:18.952Z,1040.31
2017-09-28T01:31:18.944Z,1040.33
2017-09-28T01:32:18.939Z,1040.35
2017-09-28T01:33:18.933Z,1040.37
2017-09-28T01:34:18.929Z,1040.38
2017-09-28T01:35:18.922Z,1040.37
2017-09-28T01:36:18.914Z,1040.37
2017-09-28T01:37:18.910Z,1040.37
2017-09-28T01:38:18.904Z,1040.38
2017-09-28T01:39:18.897Z,1040.34
2017-09-28T01:40:18.920Z,1040.4
2017-09-28T01:41:18.884Z,1040.32
2017-09-28T01:42:18.879Z,1040.34
2017-09-28T01:43:18.874Z,1040.34
2017-09-28T01:44:18.868Z,1040.35
2017-09-28T01:45:18.860Z,1040.3
2017-09-28T01:46:18.854Z,1040.33
2017-09-28T01:47:18.850Z,1040.3
2017-09-28T01:48:18.844Z,1040.29
2017-09-28T01:49:18.838Z,1040.33
2017-09-28T01:50:18.830Z,1040.33
2017-09-28T01:51:18.824Z,1040.35
2017-09-28T01:52:18.818Z,1040.32
2017-09-28T01:53:18.813Z,1040.35
2017-09-28T01:54:18.807Z,1040.36
2017-09-28T01:55:18.802Z,1040.38
2017-09-28T01:56:18.796Z,1040.35
2017-09-28T01:57:18.789Z,1040.37
2017-09-28T01:58:18.786Z,1040.38
2017-09-28T01:59:18.776Z,1040.38
2017-09-28T02:00:18.772Z,1040.38
2017-09-28T02:01:18.764Z,1040.38
2017-09-28T02:02:18.758Z,1040.37
2017-09-28T02:03:18.754Z,1040.41
2017-09-28T02:04:18.747Z,1040.41
2017-09-28T02:05:18.742Z,1040.39
2017-09-28T02:06:18.736Z,1040.36
2017-09-28T02:07:18.728Z,1040.37
2017-09-28T02:08:18.722Z,1040.42
2017-09-28T02:09:18.717Z,1040.39
2017-09-28T02:10:18.710Z,1040.38
2017-09-28T02:11:18.705Z,1040.38
2017-09-28T02:12:18.697Z,1040.38
2017-09-28T02:13:18.691Z,1040.4
2017-09-28T02:14:18.686Z,1040.36
2017-09-28T02:15:18.680Z,1040.35
2017-09-28T02:16:18.675Z,1040.41
2017-09-28T02:17:18.668Z,1040.39
2017-09-28T02:18:18.663Z,1040.34
2017-09-28T02:19:18.654Z,1040.38
2017-09-28T02:20:18.648Z,1040.32
2017-09-28T02:21:18.642Z,1040.35
2017-09-28T02:22:18.637Z,1040.36
2017-09-28T02:23:18.631Z,1040.4
2017-09-28T02:24:18.625Z,1040.37
2017-09-28T02:25:18.620Z,1040.38
2017-09-28T02:26:18.613Z,1040.35
2017-09-28T02:27:18.606Z,1040.32
2017-09-28T02:28:18.599Z,1040.37
2017-09-28T02:29:18.593Z,1040.34
2017-09-28T02:30:18.588Z,1040.37
2017-09-28T02:31:18.583Z,1040.35
2017-09-28T02:32:18.577Z,1040.33
2017-09-28T02:33:18.572Z,1040.34
2017-09-28T02:34:18.564Z,1040.36
2017-09-28T02:35:18.557Z,1040.35
2017-09-28T02:36:18.552Z,1040.39
2017-09-28T02:37:18.546Z,1040.39
2017-09-28T02:38:18.538Z,1040.33
2017-09-28T02:39:18.532Z,1040.35
2017-09-28T02:40:18.527Z,1040.37
2017-09-28T02:41:18.519Z,1040.35
2017-09-28T02:42:18.513Z,1040.39
2017-09-28T02:43:18.509Z,1040.41
2017-09-28T02:44:18.502Z,1040.4
2017-09-28T02:45:18.496Z,1040.36
2017-09-28T02:46:18.491Z,1040.42
2017-09-28T02:47:18.483Z,1040.39
2017-09-28T02:48:18.476Z,1040.37
2017-09-28T02:49:18.469Z,1040.35
2017-09-28T02:50:18.464Z,1040.39
2017-09-28T02:51:18.459Z,1040.38
2017-09-28T02:52:18.453Z,1040.4
2017-09-28T02:53:18.447Z,1040.35
2017-09-28T02:54:18.441Z,1040.4
2017-09-28T02:55:18.434Z,1040.39
2017-09-28T02:56:18.427Z,1040.36
2017-09-28T02:57:18.421Z,1040.38
2017-09-28T02:58:18.415Z,1040.42
2017-09-28T02:59:18.410Z,1040.46
2017-09-28T03:00:18.404Z,1040.44
2017-09-28T03:01:18.397Z,1040.48
2017-09-28T03:02:18.390Z,1040.44
2017-09-28T03:03:18.385Z,1040.47
2017-09-28T03:04:18.378Z,1040.45
2017-09-28T03:05:18.373Z,1040.44
2017-09-28T03:06:18.365Z,1040.47
2017-09-28T03:07:18.357Z,1040.42
2017-09-28T03:08:18.351Z,1040.45
2017-09-28T03:09:18.345Z,1040.43
2017-09-28T03:10:18.338Z,1040.44
2017-09-28T03:11:18.334Z,1040.42
2017-09-28T03:12:18.328Z,1040.43
2017-09-28T03:13:18.322Z,1040.42
2017-09-28T03:14:18.315Z,1040.36
2017-09-28T03:15:18.307Z,1040.4
2017-09-28T03:16:18.301Z,1040.42
2017-09-28T03:17:18.294Z,1040.39
2017-09-28T03:18:18.287Z,1040.39
2017-09-28T03:19:18.283Z,1040.35
2017-09-28T03:20:18.276Z,1040.41
2017-09-28T03:21:18.270Z,1040.42
2017-09-28T03:22:18.264Z,1040.42
2017-09-28T03:23:18.257Z,1040.45
2017-09-28T03:24:18.250Z,1040.53
2017-09-28T03:25:18.243Z,1040.54
2017-09-28T03:26:18.237Z,1040.62
2017-09-28T03:27:18.232Z,1040.59
2017-09-28T03:28:18.224Z,1040.63
2017-09-28T03:29:18.217Z,1040.61
2017-09-28T03:30:18.211Z,1040.63
2017-09-28T03:31:18.206Z,1040.65
2017-09-28T03:32:18.199Z,1040.63
2017-09-28T03:33:18.192Z,1040.67
2017-09-28T03:34:18.187Z,1040.68
2017-09-28T03:35:18.179Z,1040.71
2017-09-28T03:36:18.174Z,1040.71
2017-09-28T03:37:18.165Z,1040.73
2017-09-28T03:38:18.159Z,1040.72
2017-09-28T03:39:18.154Z,1040.76
2017-09-28T03:40:18.148Z,1040.75
2017-09-28T03:41:18.142Z,1040.78
2017-09-28T03:42:18.136Z,1040.77
2017-09-28T03:43:18.126Z,1040.79
2017-09-28T03:44:18.120Z,1040.75
2017-09-28T03:45:18.114Z,1040.77
2017-09-28T03:46:18.108Z,1040.81
2017-09-28T03:47:18.102Z,1040.76
2017-09-28T03:48:18.096Z,1040.81
2017-09-28T03:49:18.088Z,1040.83
2017-09-28T03:50:18.082Z,1040.84
2017-09-28T03:51:18.075Z,1040.85
2017-09-28T03:52:18.067Z,1040.88
2017-09-28T03:53:18.063Z,1040.87
2017-09-28T03:54:18.056Z,1040.87
2017-09-28T03:55:18.049Z,1040.92
2017-09-28T03:56:18.041Z,1040.87
2017-09-28T03:57:18.036Z,1040.88
2017-09-28T03:58:18.029Z,1040.91
2017-09-28T03:59:18.023Z,1040.9
2017-09-28T04:00:18.017Z,1040.91
2017-09-28T04:01:18.009Z,1040.91
2017-09-28T04:02:18.002Z,1040.96
2017-09-28T04:03:17.997Z,1040.95
2017-09-28T04:04:17.989Z,1040.95
2017-09-28T04:05:17.981Z,1040.97
2017-09-28T04:06:17.975Z,1040.95
2017-09-28T04:07:17.969Z,1040.91
2017-09-28T04:08:17.962Z,1040.9
2017-09-28T04:09:17.955Z,1040.93
2017-09-28T04:10:17.950Z,1040.98
2017-09-28T04:11:17.941Z,1040.95
2017-09-28T04:12:17.934Z,1040.9
2017-09-28T04:13:17.928Z,1040.89
2017-09-28T04:14:17.921Z,1040.87
2017-09-28T04:15:17.917Z,1040.87
2017-09-28T04:16:17.911Z,1040.85
2017-09-28T04:17:17.903Z,1040.87
2017-09-28T04:18:17.901Z,1040.8
2017-09-28T04:19:17.889Z,1040.84
2017-09-28T04:20:17.882Z,1040.83
2017-09-28T04:21:17.876Z,1040.81
2017-09-28T04:22:17.869Z,1040.82
2017-09-28T04:23:17.860Z,1040.84
2017-09-28T04:24:17.857Z,1040.84
2017-09-28T04:25:17.847Z,1040.83
2017-09-28T04:26:17.840Z,1040.85
2017-09-28T04:27:17.835Z,1040.85
2017-09-28T04:28:17.828Z,1040.82
2017-09-28T04:29:17.822Z,1040.83
2017-09-28T04:30:17.814Z,1040.83
2017-09-28T04:31:17.807Z,1040.8
2017-09-28T04:32:17.801Z,1040.85
2017-09-28T04:33:17.794Z,1040.86
2017-09-28T04:34:17.790Z,1040.86
2017-09-28T04:35:17.782Z,1040.87
2017-09-28T04:36:17.775Z,1040.9
2017-09-28T04:37:17.769Z,1040.94
2017-09-28T04:38:17.761Z,1040.93
2017-09-28T04:39:17.755Z,1040.93
2017-09-28T04:40:17.749Z,1040.95
2017-09-28T04:41:17.740Z,1040.97
2017-09-28T04:42:17.734Z,1040.99
2017-09-28T04:43:17.729Z,1040.98
2017-09-28T04:44:17.722Z,1041
2017-09-28T04:45:17.714Z,1041
2017-09-28T04:46:17.706Z,1040.96
2017-09-28T04:47:17.702Z,1041.06
2017-09-28T04:48:17.694Z,1041.01
2017-09-28T04:49:17.687Z,1041.02
2017-09-28T04:50:17.681Z,1041.01
2017-09-28T04:51:17.675Z,1040.98
2017-09-28T04:52:17.665Z,1041
2017-09-28T04:53:17.659Z,1040.98
2017-09-28T04:54:17.653Z,1041.03
2017-09-28T04:55:17.647Z,1041.02
2017-09-28T04:56:17.645Z,1041.04
2017-09-28T04:57:17.633Z,1041.05
2017-09-28T04:58:17.626Z,1041.05
2017-09-28T04:59:17.618Z,1041.05
2017-09-28T05:00:17.611Z,1041.08
2017-09-28T05:01:17.604Z,1041.07
2017-09-28T05:02:17.598Z,1041.12
2017-09-28T05:03:17.591Z,1041.12
2017-09-28T05:04:17.585Z,1041.06
2017-09-28T05:05:17.578Z,1041.08
2017-09-28T05:06:17.573Z,1041.08
2017-09-28T05:07:17.562Z,1041.1
2017-09-28T05:08:17.556Z,1041.14
2017-09-28T05:09:17.549Z,1041.13
2017-09-28T05:10:17.544Z,1041.21
2017-09-28T05:11:17.536Z,1041.23
2017-09-28T05:12:17.531Z,1041.26
2017-09-28T05:13:17.522Z,1041.29
2017-09-28T05:14:17.515Z,1041.37
2017-09-28T05:15:17.509Z,1041.38
2017-09-28T05:16:17.502Z,1041.42
2017-09-28T05:17:17.496Z,1041.47
2017-09-28T05:18:17.488Z,1041.46
2017-09-28T05:19:17.479Z,1041.46
2017-09-28T05:20:17.474Z,1041.5
2017-09-28T05:21:17.466Z,1041.52
2017-09-28T05:22:17.458Z,1041.49
2017-09-28T05:23:17.453Z,1041.47
2017-09-28T05:24:17.447Z,1041.51
2017-09-28T05:25:17.439Z,1041.51
2017-09-28T05:26:17.432Z,1041.51
2017-09-28T05:27:17.424Z,1041.52
2017-09-28T05:28:17.417Z,1041.53
2017-09-28T05:29:17.410Z,1041.54
2017-09-28T05:30:17.403Z,1041.53
2017-09-28T05:31:17.398Z,1041.55
2017-09-28T05:32:17.391Z,1041.53
2017-09-28T05:33:17.383Z,1041.57
2017-09-28T05:34:17.376Z,1041.55
2017-09-28T05:35:17.368Z,1041.57
2017-09-28T05:36:17.361Z,1041.57
2017-09-28T05:37:17.354Z,1041.55
2017-09-28T05:38:17.348Z,1041.6
2017-09-28T05:39:17.340Z,1041.58
2017-09-28T05:40:17.331Z,1041.63
2017-09-28T05:41:17.326Z,1041.58
2017-09-28T05:42:17.319Z,1041.58
2017-09-28T05:43:17.313Z,1041.58
2017-09-28T05:44:17.305Z,1041.6
2017-09-28T05:45:17.298Z,1041.63
2017-09-28T05:46:17.291Z,1041.58
2017-09-28T05:47:17.283Z,1041.53
2017-09-28T05:48:17.276Z,1041.56
2017-09-28T05:49:17.268Z,1041.58
2017-09-28T05:50:17.262Z,1041.61
2017-09-28T05:51:17.256Z,1041.59
2017-09-28T05:52:17.249Z,1041.61
2017-09-28T05:53:17.242Z,1041.62
2017-09-28T05:54:17.238Z,1041.63
2017-09-28T05:55:17.225Z,1041.68
2017-09-28T05:56:17.218Z,1041.61
2017-09-28T05:57:17.212Z,1041.66
2017-09-28T05:58:17.204Z,1041.66
2017-09-28T05:59:17.197Z,1041.67
2017-09-28T06:00:17.191Z,1041.64
2017-09-28T06:01:17.186Z,1041.67
2017-09-28T06:02:17.177Z,1041.68
2017-09-28T06:03:17.169Z,1041.69
2017-09-28T06:04:17.162Z,1041.73
2017-09-28T06:05:17.155Z,1041.72
2017-09-28T06:06:17.149Z,1041.71
2017-09-28T06:07:17.143Z,1041.7
2017-09-28T06:08:17.137Z,1041.71
2017-09-28T06:09:17.129Z,1041.64
2017-09-28T06:10:17.122Z,1041.63
2017-09-28T06:11:17.114Z,1041.62
2017-09-28T06:12:17.107Z,1041.58
2017-09-28T06:13:17.099Z,1041.58
2017-09-28T06:14:17.092Z,1041.62
2017-09-28T06:15:17.086Z,1041.56
2017-09-28T06:16:17.078Z,1041.55
2017-09-28T06:17:17.071Z,1041.53
2017-09-28T06:18:17.070Z,1041.48
2017-09-28T06:19:17.057Z,1041.43
2017-09-28T06:20:17.049Z,1041.44
2017-09-28T06:21:17.042Z,1041.39
2017-09-28T06:22:17.035Z,1041.43
2017-09-28T06:23:17.033Z,1041.38
2017-09-28T06:24:17.023Z,1041.32
2017-09-28T06:25:17.016Z,1041.34
2017-09-28T06:26:17.009Z,1041.35
2017-09-28T06:27:17.000Z,1041.29
2017-09-28T06:28:16.995Z,1041.29
2017-09-28T06:29:16.988Z,1041.26
2017-09-28T06:30:16.986Z,1041.21
2017-09-28T06:31:16.972Z,1041.15
2017-09-28T06:32:16.967Z,1041.22
2017-09-28T06:33:16.959Z,1041.22
2017-09-28T06:34:16.953Z,1041.16
2017-09-28T06:35:16.947Z,1041.13
2017-09-28T06:36:16.971Z,1041.04
2017-09-28T06:37:16.936Z,1041
2017-09-28T06:38:16.927Z,1041
2017-09-28T06:39:16.918Z,1040.98
2017-09-28T06:40:16.912Z,1040.96
2017-09-28T06:41:16.906Z,1040.96
2017-09-28T06:42:16.906Z,1040.98
2017-09-28T06:43:16.894Z,1040.99
2017-09-28T06:44:16.887Z,1040.98
2017-09-28T06:45:16.880Z,1040.96
2017-09-28T06:46:16.873Z,1040.96
2017-09-28T06:47:16.866Z,1040.94
2017-09-28T06:48:16.860Z,1040.92
2017-09-28T06:49:16.853Z,1040.89
2017-09-28T06:50:16.846Z,1040.88
2017-09-28T06:51:16.841Z,1040.84
2017-09-28T06:52:16.837Z,1040.81
2017-09-28T06:53:16.828Z,1040.82
2017-09-28T06:54:16.823Z,1040.86
2017-09-28T06:55:16.817Z,1040.83
2017-09-28T06:56:16.810Z,1040.75
2017-09-28T06:57:16.804Z,1040.68
2017-09-28T06:58:16.801Z,1040.68
2017-09-28T06:59:16.791Z,1040.57
2017-09-28T07:00:16.784Z,1040.47
2017-09-28T07:01:16.777Z,1040.45
2017-09-28T07:02:16.774Z,1039.81
2017-09-28T07:03:16.767Z,1039.29
2017-09-28T07:04:16.761Z,1038.81
2017-09-28T07:05:16.756Z,1038.42
2017-09-28T07:06:16.750Z,1038.07
2017-09-28T07:07:16.744Z,1037.78
2017-09-28T07:08:16.739Z,1037.52
2017-09-28T07:09:16.738Z,1037.3
2017-09-28T07:10:16.729Z,1037.04
2017-09-28T07:11:16.725Z,1036.87
2017-09-28T07:12:16.723Z,1036.68
2017-09-28T07:13:16.718Z,1036.52
2017-09-28T07:14:16.714Z,1036.36
2017-09-28T07:15:16.709Z,1036.21
2017-09-28T07:16:16.705Z,1036.12
2017-09-28T07:17:16.704Z,1035.98
2017-09-28T07:18:16.700Z,1035.98
2017-09-28T07:19:16.696Z,1035.92
2017-09-28T07:20:16.694Z,1035.94
2017-09-28T07:21:16.692Z,1036.02
2017-09-28T07:22:16.689Z,1036.15
2017-09-28T07:23:16.688Z,1036.3
2017-09-28T07:24:16.687Z,1036.35
2017-09-28T07:25:16.685Z,1036.51
2017-09-28T07:26:16.683Z,1036.59
2017-09-28T07:27:16.681Z,1036.68
2017-09-28T07:28:16.678Z,1036.7
2017-09-28T07:29:16.678Z,1036.78
2017-09-28T07:30:16.677Z,1036.79
2017-09-28T07:31:16.675Z,1036.77
2017-09-28T07:32:16.674Z,1036.75
2017-09-28T07:33:16.672Z,1036.71
2017-09-28T07:34:16.672Z,1036.7
2017-09-28T07:35:16.669Z,1036.65
2017-09-28T07:36:16.668Z,1036.64
2017-09-28T07:37:16.666Z,1036.59
2017-09-28T07:38:16.665Z,1036.5
2017-09-28T07:39:16.666Z,1036.47
2017-09-28T07:40:16.664Z,1036.47
2017-09-28T07:41:16.664Z,1036.44
2017-09-28T07:42:16.663Z,1036.45
2017-09-28T07:43:16.661Z,1036.41
2017-09-28T07:44:16.660Z,1036.52
2017-09-28T07:45:16.661Z,1036.57
2017-09-28T07:46:16.660Z,1036.6
2017-09-28T07:47:16.658Z,1036.66
2017-09-28T07:48:16.656Z,1036.7
2017-09-28T07:49:16.656Z,1036.99
2017-09-28T07:50:16.655Z,1037.32
2017-09-28T07:51:16.655Z,1037.68
2017-09-28T07:52:16.654Z,1037.93
2017-09-28T07:53:16.655Z,1038.11
2017-09-28T07:54:16.652Z,1038.34
2017-09-28T07:55:16.649Z,1038.54
2017-09-28T07:56:16.648Z,1038.62
2017-09-28T07:57:16.645Z,1038.74
2017-09-28T07:58:16.642Z,1038.88
2017-09-28T07:59:16.641Z,1038.97
2017-09-28T08:00:16.642Z,1039.04
2017-09-28T08:01:16.637Z,1039.16
2017-09-28T08:02:16.636Z,1039.19
2017-09-28T08:03:16.630Z,1039.22
2017-09-28T08:04:16.629Z,1039.24
2017-09-28T08:05:16.626Z,1039.22
2017-09-28T08:06:16.621Z,1039.26
2017-09-28T08:07:16.620Z,1039.31
2017-09-28T08:08:16.619Z,1039.28
2017-09-28T08:09:16.613Z,1039.39
2017-09-28T08:10:16.609Z,1039.38
2017-09-28T08:11:16.607Z,1039.41
2017-09-28T08:12:16.604Z,1039.4
2017-09-28T08:13:16.601Z,1039.44
2017-09-28T08:14:16.632Z,1039.43
2017-09-28T08:15:16.592Z,1039.46
2017-09-28T08:16:16.589Z,1039.45
2017-09-28T08:17:16.589Z,1039.43
2017-09-28T08:18:16.581Z,1039.44
2017-09-28T08:19:16.579Z,1039.5
2017-09-28T08:20:16.576Z,1039.51
2017-09-28T08:21:16.571Z,1039.5
2017-09-28T08:22:16.568Z,1039.5
2017-09-28T08:23:16.562Z,1039.47
2017-09-28T08:24:16.559Z,1039.48
2017-09-28T08:25:16.554Z,1039.36
2017-09-28T08:26:16.551Z,1039.47
2017-09-28T08:27:16.549Z,1039.46
2017-09-28T08:28:16.545Z,1039.49
2017-09-28T08:29:16.539Z,1039.49
2017-09-28T08:30:16.538Z,1039.5
2017-09-28T08:31:16.532Z,1039.52
2017-09-28T08:32:16.528Z,1039.53
2017-09-28T08:33:16.523Z,1039.53
2017-09-28T08:34:16.520Z,1039.51
2017-09-28T08:35:16.516Z,1039.53
2017-09-28T08:36:16.512Z,1039.48
2017-09-28T08:37:16.509Z,1039.44
2017-09-28T08:38:16.504Z,1039.45
2017-09-28T08:39:16.502Z,1039.42
2017-09-28T08:40:16.497Z,1039.42
2017-09-28T08:41:16.494Z,1039.39
2017-09-28T08:42:16.492Z,1039.39
2017-09-28T08:43:16.484Z,1039.41
2017-09-28T08:44:16.481Z,1039.43
2017-09-28T08:45:16.477Z,1039.38
2017-09-28T08:46:16.472Z,1039.37
2017-09-28T08:47:16.476Z,1039.33
2017-09-28T08:48:16.466Z,1039.34
2017-09-28T08:49:16.462Z,1039.33
2017-09-28T08:50:16.456Z,1039.33
2017-09-28T08:51:16.452Z,1039.28
2017-09-28T08:52:16.449Z,1039.29
2017-09-28T08:53:16.445Z,1039.32
2017-09-28T08:54:16.440Z,1039.36
2017-09-28T08:55:16.438Z,1039.35
2017-09-28T08:56:16.434Z,1039.36
2017-09-28T08:57:16.429Z,1039.4
2017-09-28T08:58:16.425Z,1039.43
2017-09-28T08:59:16.422Z,1039.39
2017-09-28T09:00:16.417Z,1039.37
2017-09-28T09:01:16.414Z,1039.38
2017-09-28T09:02:16.410Z,1039.37
2017-09-28T09:03:16.404Z,1039.37
2017-09-28T09:04:16.407Z,1039.39
2017-09-28T09:05:16.396Z,1039.34
2017-09-28T09:06:16.393Z,1039.4
2017-09-28T09:07:16.391Z,1039.41
2017-09-28T09:08:16.386Z,1039.44
2017-09-28T09:09:16.382Z,1039.49
2017-09-28T09:10:16.378Z,1039.5
2017-09-28T09:11:16.373Z,1039.53
2017-09-28T09:12:16.369Z,1039.5
2017-09-28T09:13:16.366Z,1039.55
2017-09-28T09:14:16.363Z,1039.53
2017-09-28T09:15:16.360Z,1039.55
2017-09-28T09:16:16.357Z,1039.54
2017-09-28T09:17:16.352Z,1039.52
2017-09-28T09:18:16.349Z,1039.47
2017-09-28T09:19:16.343Z,1039.46
2017-09-28T09:20:16.338Z,1039.46
2017-09-28T09:21:16.334Z,1039.44
2017-09-28T09:22:16.330Z,1039.44
2017-09-28T09:23:16.327Z,1039.36
2017-09-28T09:24:16.323Z,1039.42
2017-09-28T09:25:16.319Z,1039.36
2017-09-28T09:26:16.313Z,1039.37
2017-09-28T09:27:16.311Z,1039.35
2017-09-28T09:28:16.307Z,1039.32
2017-09-28T09:29:16.303Z,1039.32
2017-09-28T09:30:16.299Z,1039.31
2017-09-28T09:31:16.294Z,1039.29
2017-09-28T09:32:16.290Z,1039.32
2017-09-28T09:33:16.286Z,1039.39
2017-09-28T09:34:16.282Z,1039.34
2017-09-28T09:35:16.279Z,1039.36
2017-09-28T09:36:16.276Z,1039.36
2017-09-28T09:37:16.271Z,1039.36
2017-09-28T09:38:16.267Z,1039.31
2017-09-28T09:39:16.262Z,1039.37
2017-09-28T09:40:16.259Z,1039.4
2017-09-28T09:41:16.253Z,1039.39
2017-09-28T09:42:16.250Z,1039.37
2017-09-28T09:43:16.248Z,1039.38
2017-09-28T09:44:16.243Z,1039.4
2017-09-28T09:45:16.239Z,1039.37
2017-09-28T09:46:16.234Z,1039.35
2017-09-28T09:47:16.235Z,1039.42
2017-09-28T09:48:16.225Z,1039.36
2017-09-28T09:49:16.222Z,1039.42
2017-09-28T09:50:16.218Z,1039.34
2017-09-28T09:51:16.216Z,1039.37
2017-09-28T09:52:16.210Z,1039.38
2017-09-28T09:53:16.205Z,1039.38
2017-09-28T09:54:16.203Z,1039.3
2017-09-28T09:55:16.200Z,1039.32
2017-09-28T09:56:16.195Z,1039.33
2017-09-28T09:57:16.191Z,1039.29
2017-09-28T09:58:16.186Z,1039.34
2017-09-28T09:59:16.181Z,1039.28
2017-09-28T10:00:16.177Z,1039.29
2017-09-28T10:01:16.173Z,1039.25
2017-09-28T10:02:16.170Z,1039.28
2017-09-28T10:03:16.168Z,1039.21
2017-09-28T10:04:16.162Z,1039.19
2017-09-28T10:05:16.159Z,1039.2
2017-09-28T10:06:16.154Z,1039.2
2017-09-28T10:07:16.149Z,1039.22
2017-09-28T10:08:16.144Z,1039.21
2017-09-28T10:09:16.140Z,1039.17
2017-09-28T10:10:16.139Z,1039.18
2017-09-28T10:11:16.135Z,1039.17
2017-09-28T10:12:16.130Z,1039.12
2017-09-28T10:13:16.126Z,1039.08
2017-09-28T10:14:16.121Z,1039.05
2017-09-28T10:15:16.117Z,1038.98
2017-09-28T10:16:16.113Z,1038.92
2017-09-28T10:17:16.111Z,1038.92
2017-09-28T10:18:16.105Z,1038.9
2017-09-28T10:19:16.100Z,1038.89
2017-09-28T10:20:16.096Z,1038.83
2017-09-28T10:21:16.092Z,1038.8
2017-09-28T10:22:16.088Z,1038.77
2017-09-28T10:23:16.085Z,1038.74
2017-09-28T10:24:16.081Z,1038.79
2017-09-28T10:25:16.078Z,1038.73
2017-09-28T10:26:16.080Z,1038.7
2017-09-28T10:27:16.069Z,1038.8
2017-09-28T10:28:16.065Z,1038.7
2017-09-28T10:29:16.061Z,1038.78
2017-09-28T10:30:16.058Z,1038.77
2017-09-28T10:31:16.055Z,1038.72
2017-09-28T10:32:16.055Z,1038.73
2017-09-28T10:33:16.048Z,1038.73
2017-09-28T10:34:16.044Z,1038.72
2017-09-28T10:35:16.039Z,1038.74
2017-09-28T10:36:16.036Z,1038.75
2017-09-28T10:37:16.031Z,1038.71
2017-09-28T10:38:16.031Z,1038.7
2017-09-28T10:39:16.026Z,1038.67
2017-09-28T10:40:16.022Z,1038.67
2017-09-28T10:41:16.017Z,1038.64
2017-09-28T10:42:16.014Z,1038.64
2017-09-28T10:43:16.012Z,1038.57
2017-09-28T10:44:16.008Z,1038.59
2017-09-28T10:45:16.004Z,1038.55
2017-09-28T10:46:16.001Z,1038.49
2017-09-28T10:47:15.995Z,1038.45
2017-09-28T10:48:15.993Z,1038.41
2017-09-28T10:49:15.988Z,1038.42
2017-09-28T10:50:15.986Z,1038.3
2017-09-28T10:51:15.983Z,1038.22
2017-09-28T10:52:15.981Z,1038.15
2017-09-28T10:53:15.977Z,1038.11
2017-09-28T10:54:15.973Z,1038.11
2017-09-28T10:55:15.969Z,1038.14
2017-09-28T10:56:15.966Z,1038.1
2017-09-28T10:57:15.963Z,1038.18
2017-09-28T10:58:15.961Z,1038.17
2017-09-28T10:59:15.959Z,1038.13
2017-09-28T11:00:15.956Z,1038.09
2017-09-28T11:01:15.953Z,1038.11
2017-09-28T11:02:15.950Z,1038.12
2017-09-28T11:03:15.946Z,1038.09
2017-09-28T11:04:15.944Z,1038.06
2017-09-28T11:05:15.939Z,1038
2017-09-28T11:06:15.937Z,1037.94
2017-09-28T11:07:15.936Z,1037.97
2017-09-28T11:08:15.933Z,1037.95
2017-09-28T11:09:15.928Z,1037.85
2017-09-28T11:10:15.925Z,1037.83
2017-09-28T11:11:15.923Z,1037.81
2017-09-28T11:12:15.921Z,1037.8
2017-09-28T11:13:15.919Z,1037.76
2017-09-28T11:14:15.916Z,1037.74
2017-09-28T11:15:15.912Z,1037.71
2017-09-28T11:16:15.909Z,1037.71
2017-09-28T11:17:15.908Z,1037.64
2017-09-28T11:18:15.905Z,1037.58
2017-09-28T11:19:15.903Z,1037.47
2017-09-28T11:20:15.900Z,1037.4
2017-09-28T11:21:15.899Z,1037.32
2017-09-28T11:22:15.896Z,1037.22
2017-09-28T11:23:15.893Z,1037.08
2017-09-28T11:24:15.890Z,1036.99
2017-09-28T11:25:15.888Z,1036.9
2017-09-28T11:26:15.888Z,1036.79
2017-09-28T11:27:15.886Z,1036.75
2017-09-28T11:28:15.885Z,1036.72
2017-09-28T11:29:15.881Z,1036.8
2017-09-28T11:30:15.880Z,1036.77
2017-09-28T11:31:15.876Z,1036.84
2017-09-28T11:32:15.877Z,1036.87
2017-09-28T11:33:15.874Z,1036.83
2017-09-28T11:34:15.874Z,1036.81
2017-09-28T11:35:15.871Z,1036.8
2017-09-28T11:36:15.870Z,1036.81
2017-09-28T11:37:15.868Z,1036.8
2017-09-28T11:38:15.866Z,1036.87
2017-09-28T11:39:15.870Z,1036.9
2017-09-28T11:40:15.866Z,1036.85
2017-09-28T11:41:15.864Z,1036.84
2017-09-28T11:42:15.863Z,1036.86
2017-09-28T11:43:15.860Z,1036.88
2017-09-28T11:44:15.860Z,1036.9
2017-09-28T11:45:15.857Z,1036.91
2017-09-28T11:46:15.856Z,1036.99
2017-09-28T11:47:15.856Z,1037.1
2017-09-28T11:48:15.858Z,1037.1
2017-09-28T11:49:15.854Z,1037.16
2017-09-28T11:50:15.853Z,1037.16
2017-09-28T11:51:15.851Z,1037.12
2017-09-28T11:52:15.850Z,1037.16
2017-09-28T11:53:15.848Z,1037.05
2017-09-28T11:54:15.848Z,1037.01
2017-09-28T11:55:15.847Z,1037
2017-09-28T11:56:15.846Z,1036.96
2017-09-28T11:57:15.844Z,1036.89
2017-09-28T11:58:15.843Z,1036.85
2017-09-28T11:59:15.840Z,1036.83
2017-09-28T12:00:15.840Z,1036.8
2017-09-28T12:01:15.839Z,1036.8
2017-09-28T12:02:15.837Z,1036.79
2017-09-28T12:03:15.836Z,1036.78
2017-09-28T12:04:15.833Z,1036.8
2017-09-28T12:05:15.832Z,1036.77
2017-09-28T12:06:15.832Z,1036.73
2017-09-28T12:07:15.831Z,1036.76
2017-09-28T12:08:15.829Z,1036.69